Time;durP1;ratioP1;P1;durP2;ratioP2;P2;SDS_P1;SDS_P2;PMS_P1;PMS_P2;Temp;Humidity;BMP_temperature;BMP_pressure;BME280_temperature;BME280_humidity;BME280_pressure;Samples;Min_cycle;Max_cycle;Signal;HPM_P1;HPM_P2
2023/08/06 00:01:55;;;;;;;;;;;;;;;23.37;58.71;99750.97;6255390;23;19908;-86
2023/08/06 00:04:47;;;;;;;;;;;;;;;23.19;59.00;99754.09;6255215;23;19911;-86
2023/08/06 00:07:36;;;;;;;;;;;;;;;23.15;60.20;99747.03;6256663;23;19911;-86
2023/08/06 00:10:24;;;;;;;;;;;;;;;23.51;59.28;99747.19;6256708;23;19907;-86
2023/08/06 00:13:15;;;;;;;;;;;;;;;23.64;58.89;99732.25;6256833;23;20246;-85
2023/08/06 00:16:17;;;;;;;;;;;;;;;23.64;57.78;99735.00;6257005;23;19908;-86
2023/08/06 00:19:09;;;;;;;;;;;;;;;23.56;58.19;99736.38;6256297;23;19907;-85
2023/08/06 00:21:55;;;;;;;;;;;;;;;23.63;58.48;99724.31;6257068;23;20327;-86
2023/08/06 00:24:45;;;;;;;;;;;;;;;23.75;57.87;99729.25;6256706;23;19911;-87
2023/08/06 00:27:37;;;;;;;;;;;;;;;23.84;57.77;99729.44;6256553;23;20319;-85
2023/08/06 00:30:29;;;;;;;;;;;;;;;23.86;57.53;99724.25;6255594;23;20250;-86
2023/08/06 00:33:21;;;;;;;;;;;;;;;23.88;57.28;99730.94;6256639;23;20211;-86
2023/08/06 00:36:13;;;;;;;;;;;;;;;23.84;57.27;99724.69;6255353;23;19907;-86
2023/08/06 00:39:02;;;;;;;;;;;;;;;23.87;57.29;99729.34;6256190;23;19908;-86
2023/08/06 00:41:55;;;;;;;;;;;;;;;23.88;57.16;99722.59;6256608;23;19907;-86
2023/08/06 00:44:47;;;;;;;;;;;;;;;23.90;57.20;99724.16;6256635;23;19915;-86
2023/08/06 00:47:39;;;;;;;;;;;;;;;23.90;57.14;99722.19;6255073;23;20238;-86
2023/08/06 00:50:31;;;;;;;;;;;;;;;23.88;56.99;99708.72;6256413;23;19907;-86
2023/08/06 00:53:23;;;;;;;;;;;;;;;23.89;57.05;99709.50;6257235;23;19907;-86
2023/08/06 00:56:15;;;;;;;;;;;;;;;23.88;57.11;99714.28;6234451;23;19907;-86
2023/08/06 00:59:06;;;;;;;;;;;;;;;23.90;57.03;99710.28;6256320;23;19907;-85
2023/08/06 01:01:59;;;;;;;;;;;;;;;23.88;56.91;99702.38;6255900;23;20241;-86
2023/08/06 01:04:51;;;;;;;;;;;;;;;23.86;56.92;99702.03;6234192;23;19915;-85
2023/08/06 01:07:56;;;;;;;;;;;;;;;23.67;56.92;99700.84;6256846;23;19908;-86
2023/08/06 01:10:54;;;;;;;;;;;;;;;23.47;57.83;99705.59;6255594;23;19907;-85
2023/08/06 01:13:43;;;;;;;;;;;;;;;23.62;57.86;99690.22;6234096;23;20246;-86
2023/08/06 01:16:35;;;;;;;;;;;;;;;23.22;57.84;99694.97;6253942;23;19907;-86
2023/08/06 01:19:27;;;;;;;;;;;;;;;23.44;58.54;99698.91;6253396;23;19911;-83
2023/08/06 01:22:19;;;;;;;;;;;;;;;23.50;58.33;99690.91;6258269;23;19908;-81
2023/08/06 01:25:09;;;;;;;;;;;;;;;23.51;57.55;99692.47;6258846;23;19912;-81
2023/08/06 01:28:03;;;;;;;;;;;;;;;23.23;58.96;99693.00;6257064;23;19907;-81
2023/08/06 01:30:55;;;;;;;;;;;;;;;23.21;58.72;99690.63;6256275;23;19903;-81
2023/08/06 01:33:47;;;;;;;;;;;;;;;22.79;60.50;99689.44;6235603;23;19911;-82
2023/08/06 01:36:39;;;;;;;;;;;;;;;22.74;60.64;99689.94;6257956;23;20307;-81
2023/08/06 01:39:31;;;;;;;;;;;;;;;22.73;60.46;99687.56;6255717;23;19907;-82
2023/08/06 01:42:26;;;;;;;;;;;;;;;22.89;61.08;99699.56;6235394;23;19908;-82
2023/08/06 01:45:18;;;;;;;;;;;;;;;23.26;60.04;99692.16;6256288;23;19911;-80
2023/08/06 01:48:10;;;;;;;;;;;;;;;23.55;59.10;99684.06;6234163;23;20103;-80
2023/08/06 01:51:01;;;;;;;;;;;;;;;23.69;58.56;99687.31;6257526;23;19908;-82
2023/08/06 01:53:53;;;;;;;;;;;;;;;23.76;58.30;99678.84;6234584;23;19908;-82
2023/08/06 01:56:45;;;;;;;;;;;;;;;23.82;58.26;99682.66;6234673;23;19911;-82
2023/08/06 01:59:37;;;;;;;;;;;;;;;23.87;57.96;99670.28;6233534;23;19911;-81
2023/08/06 02:02:26;;;;;;;;;;;;;;;23.91;58.12;99670.19;6256065;23;19908;-79
2023/08/06 02:05:18;;;;;;;;;;;;;;;23.92;57.87;99669.00;6257456;23;20023;-82
2023/08/06 02:08:05;;;;;;;;;;;;;;;23.90;57.71;99663.06;6255332;23;19911;-82
2023/08/06 02:10:57;;;;;;;;;;;;;;;23.89;57.84;99659.50;6257003;23;19911;-81
2023/08/06 02:13:49;;;;;;;;;;;;;;;23.92;57.81;99658.66;6255618;23;19907;-82
2023/08/06 02:16:41;;;;;;;;;;;;;;;23.93;57.89;99651.09;6256674;23;19907;-80
2023/08/06 02:19:33;;;;;;;;;;;;;;;23.88;58.02;99642.06;6254715;23;19908;-82
2023/08/06 02:22:26;;;;;;;;;;;;;;;23.91;57.92;99636.88;6255576;23;19907;-81
2023/08/06 02:25:18;;;;;;;;;;;;;;;23.93;57.98;99649.09;6256819;23;19911;-82
2023/08/06 02:28:10;;;;;;;;;;;;;;;23.93;57.98;99635.22;6233021;23;19907;-82
2023/08/06 02:30:58;;;;;;;;;;;;;;;23.97;57.91;99635.16;6256442;23;19911;-81
2023/08/06 02:33:51;;;;;;;;;;;;;;;23.99;58.02;99641.03;6255595;23;19911;-80
2023/08/06 02:36:44;;;;;;;;;;;;;;;23.96;58.04;99637.16;6254982;23;19908;-80
2023/08/06 02:39:36;;;;;;;;;;;;;;;23.97;58.07;99632.38;6255661;23;19907;-81
2023/08/06 02:42:23;;;;;;;;;;;;;;;23.96;57.92;99625.25;6256439;23;19908;-81
2023/08/06 02:45:15;;;;;;;;;;;;;;;23.97;57.83;99621.25;6233406;23;19911;-82
2023/08/06 02:48:06;;;;;;;;;;;;;;;23.99;57.68;99613.25;6232853;23;19911;-81
2023/08/06 02:50:57;;;;;;;;;;;;;;;23.98;57.71;99618.03;6254654;23;19903;-80
2023/08/06 02:53:49;;;;;;;;;;;;;;;23.97;57.66;99621.25;6254068;23;19912;-79
2023/08/06 02:56:38;;;;;;;;;;;;;;;23.94;57.82;99617.34;6232920;23;19907;-79
2023/08/06 02:59:42;;;;;;;;;;;;;;;23.95;57.61;99602.25;6232402;23;19908;-81
2023/08/06 03:02:43;;;;;;;;;;;;;;;23.95;57.91;99601.47;6254296;23;19907;-80
2023/08/06 03:05:56;;;;;;;;;;;;;;;23.97;58.35;99610.94;6255640;23;19911;-80
2023/08/06 03:08:58;;;;;;;;;;;;;;;23.97;58.64;99601.81;6232350;23;20334;-81
2023/08/06 03:11:50;;;;;;;;;;;;;;;23.96;58.87;99589.16;6254120;23;19907;-81
2023/08/06 03:14:42;;;;;;;;;;;;;;;23.97;59.08;99582.38;6232865;23;19907;-81
2023/08/06 03:17:34;;;;;;;;;;;;;;;23.96;59.27;99575.25;6253113;23;19908;-81
2023/08/06 03:20:24;;;;;;;;;;;;;;;23.94;59.42;99572.91;6232058;23;20326;-82
2023/08/06 03:23:17;;;;;;;;;;;;;;;23.95;59.55;99587.56;6254322;23;20385;-82
2023/08/06 03:26:08;;;;;;;;;;;;;;;23.92;59.80;99594.00;6232044;23;19908;-81
2023/08/06 03:29:00;;;;;;;;;;;;;;;23.93;59.80;99587.22;6232397;23;19907;-81
2023/08/06 03:31:53;;;;;;;;;;;;;;;23.91;59.79;99589.66;6233201;23;19908;-82
2023/08/06 03:34:44;;;;;;;;;;;;;;;23.49;60.46;99594.19;6232472;23;19908;-81
2023/08/06 03:37:36;;;;;;;;;;;;;;;23.08;61.97;99589.06;6232964;23;19908;-81
2023/08/06 03:40:26;;;;;;;;;;;;;;;22.60;63.90;99585.59;6233459;23;20326;-82
2023/08/06 03:43:17;;;;;;;;;;;;;;;22.41;64.18;99582.78;6255828;23;20338;-81
2023/08/06 03:46:09;;;;;;;;;;;;;;;22.36;64.37;99588.81;6234371;23;19908;-81
2023/08/06 03:49:01;;;;;;;;;;;;;;;22.15;65.10;99585.19;6255552;23;19907;-81
2023/08/06 03:51:51;;;;;;;;;;;;;;;22.00;66.22;99577.53;6256807;23;20246;-81
2023/08/06 03:54:42;;;;;;;;;;;;;;;21.88;66.17;99573.38;6255973;23;19907;-81
2023/08/06 03:57:34;;;;;;;;;;;;;;;21.59;66.71;99567.44;6255990;23;19908;-80
2023/08/06 04:00:24;;;;;;;;;;;;;;;21.37;67.30;99562.66;6238169;23;19907;-81
2023/08/06 04:03:16;;;;;;;;;;;;;;;21.41;67.52;99552.31;6238447;23;19948;-81
2023/08/06 04:06:08;;;;;;;;;;;;;;;21.46;68.48;99557.38;6258662;23;19907;-82
2023/08/06 04:09:00;;;;;;;;;;;;;;;21.60;69.33;99565.47;6237120;23;19907;-82
2023/08/06 04:11:52;;;;;;;;;;;;;;;22.02;67.20;99566.84;6259559;23;19907;-80
2023/08/06 04:14:41;;;;;;;;;;;;;;;22.60;66.08;99557.13;6259286;23;19908;-81
2023/08/06 04:17:33;;;;;;;;;;;;;;;22.87;64.83;99552.25;6259275;23;19908;-80
2023/08/06 04:20:25;;;;;;;;;;;;;;;23.07;63.76;99548.69;6258877;23;19907;-80
2023/08/06 04:23:17;;;;;;;;;;;;;;;23.24;62.74;99553.06;6258089;23;19911;-80
2023/08/06 04:26:09;;;;;;;;;;;;;;;23.31;62.40;99545.41;6257843;23;19907;-81
2023/08/06 04:28:59;;;;;;;;;;;;;;;23.37;61.66;99545.66;6258505;23;19907;-82
2023/08/06 04:31:51;;;;;;;;;;;;;;;22.82;60.91;99544.44;6257329;23;19911;-81
2023/08/06 04:34:43;;;;;;;;;;;;;;;22.75;62.92;99546.56;6257414;23;19907;-82
2023/08/06 04:37:35;;;;;;;;;;;;;;;22.30;62.50;99537.91;6257546;23;19907;-81
2023/08/06 04:40:27;;;;;;;;;;;;;;;21.95;63.53;99548.34;6236251;23;19911;-81
2023/08/06 04:43:19;;;;;;;;;;;;;;;21.67;65.44;99544.03;6258016;23;19907;-81
2023/08/06 04:46:12;;;;;;;;;;;;;;;21.56;65.12;99540.63;6235231;23;19907;-79
2023/08/06 04:49:04;;;;;;;;;;;;;;;21.62;65.50;99546.47;6257102;23;19908;-80
2023/08/06 04:51:56;;;;;;;;;;;;;;;21.51;65.98;99551.38;6256458;23;19908;-80
2023/08/06 04:54:48;;;;;;;;;;;;;;;21.43;66.79;99552.69;6257992;23;19911;-80
2023/08/06 04:57:40;;;;;;;;;;;;;;;21.38;67.78;99553.16;6256950;23;20322;-80
2023/08/06 05:00:30;;;;;;;;;;;;;;;21.23;68.13;99547.81;6258096;23;19926;-79
2023/08/06 05:03:22;;;;;;;;;;;;;;;21.29;69.19;99546.16;6258078;23;19907;-79
2023/08/06 05:06:14;;;;;;;;;;;;;;;21.15;68.05;99549.09;6257176;23;20318;-81
2023/08/06 05:09:06;;;;;;;;;;;;;;;21.21;67.82;99543.91;6255405;23;20250;-79
2023/08/06 05:11:58;;;;;;;;;;;;;;;21.46;66.97;99560.16;6256261;23;19908;-80
2023/08/06 05:14:50;;;;;;;;;;;;;;;21.55;66.68;99561.19;6255575;23;19907;-79
2023/08/06 05:17:42;;;;;;;;;;;;;;;21.52;66.75;99562.03;6255959;23;20318;-78
2023/08/06 05:20:38;;;;;;;;;;;;;;;21.56;66.10;99568.31;6256185;23;19907;-79
2023/08/06 05:23:29;;;;;;;;;;;;;;;21.62;66.88;99572.16;6256293;23;19908;-78
2023/08/06 05:26:19;;;;;;;;;;;;;;;21.70;67.68;99572.84;6256455;23;19907;-78
2023/08/06 05:29:11;;;;;;;;;;;;;;;21.65;68.26;99576.84;6255946;23;19908;-79
2023/08/06 05:32:03;;;;;;;;;;;;;;;21.70;68.23;99570.06;6256285;23;19907;-80
2023/08/06 05:34:53;;;;;;;;;;;;;;;21.82;67.39;99575.03;6256366;23;20234;-80
2023/08/06 05:37:45;;;;;;;;;;;;;;;21.94;66.58;99577.22;6256199;23;19907;-80
2023/08/06 05:40:40;;;;;;;;;;;;;;;22.30;65.45;99576.66;6256462;23;20318;-80
2023/08/06 05:43:32;;;;;;;;;;;;;;;22.50;63.71;99574.72;6256696;23;19908;-79
2023/08/06 05:46:24;;;;;;;;;;;;;;;22.60;62.88;99570.97;6256111;23;19908;-79
2023/08/06 05:49:16;;;;;;;;;;;;;;;22.78;62.65;99578.97;6255773;23;20326;-79
2023/08/06 05:52:08;;;;;;;;;;;;;;;22.85;61.79;99576.88;6256099;23;19911;-80
2023/08/06 05:55:00;;;;;;;;;;;;;;;23.12;61.29;99570.38;6255633;23;19907;-80
2023/08/06 05:57:51;;;;;;;;;;;;;;;23.04;60.18;99569.75;6255528;23;19907;-80
2023/08/06 06:00:43;;;;;;;;;;;;;;;23.06;59.79;99574.88;6255749;23;19904;-79
2023/08/06 06:03:35;;;;;;;;;;;;;;;23.03;60.50;99579.25;6255211;23;19907;-79
2023/08/06 06:06:24;;;;;;;;;;;;;;;23.16;60.42;99585.72;6255690;23;20243;-80
2023/08/06 06:09:11;;;;;;;;;;;;;;;23.18;60.01;99596.41;6255522;23;19907;-81
2023/08/06 06:12:03;;;;;;;;;;;;;;;23.28;59.71;99600.94;6255869;23;19907;-80
2023/08/06 06:14:55;;;;;;;;;;;;;;;23.43;58.92;99599.44;6255648;23;19907;-80
2023/08/06 06:17:45;;;;;;;;;;;;;;;23.57;59.29;99604.69;6254330;23;20278;-81
2023/08/06 06:20:36;;;;;;;;;;;;;;;23.88;57.94;99599.63;6255393;23;19911;-80
2023/08/06 06:23:28;;;;;;;;;;;;;;;24.02;57.54;99592.97;6255599;23;19907;-79
2023/08/06 06:26:20;;;;;;;;;;;;;;;24.26;56.99;99588.81;6255462;23;20246;-79
2023/08/06 06:29:12;;;;;;;;;;;;;;;24.50;56.29;99590.19;6255044;23;19907;-80
2023/08/06 06:32:04;;;;;;;;;;;;;;;24.76;55.55;99601.41;6255559;23;20317;-81
2023/08/06 06:34:54;;;;;;;;;;;;;;;24.83;55.79;99593.69;6255849;23;19907;-81
2023/08/06 06:37:41;;;;;;;;;;;;;;;25.37;54.13;99593.72;6255152;23;19908;-82
2023/08/06 06:40:33;;;;;;;;;;;;;;;25.70;53.60;99596.38;6255498;23;19907;-86
2023/08/06 06:43:20;;;;;;;;;;;;;;;26.08;52.32;99605.47;6255968;23;19908;-84
2023/08/06 06:46:11;;;;;;;;;;;;;;;26.46;51.03;99621.41;6255491;23;19911;-84
2023/08/06 06:49:08;;;;;;;;;;;;;;;26.61;49.61;99625.25;6255098;23;20242;-86
2023/08/06 06:52:00;;;;;;;;;;;;;;;26.87;48.45;99610.00;6256273;23;19907;-88
2023/08/06 06:54:54;;;;;;;;;;;;;;;26.87;47.28;99623.97;6254947;23;20405;-86
2023/08/06 06:57:43;;;;;;;;;;;;;;;26.97;45.48;99622.78;6255567;23;19908;-84
2023/08/06 07:00:38;;;;;;;;;;;;;;;27.34;44.52;99620.25;6255433;23;19907;-84
2023/08/06 07:03:27;;;;;;;;;;;;;;;27.77;43.44;99622.25;6256669;23;19907;-85
2023/08/06 07:06:18;;;;;;;;;;;;;;;27.88;43.91;99628.97;6257026;23;19912;-88
2023/08/06 07:09:10;;;;;;;;;;;;;;;28.32;42.93;99637.22;6260522;23;19919;-87
2023/08/06 07:12:02;;;;;;;;;;;;;;;30.68;38.01;99632.41;6262741;23;19907;-84
2023/08/06 07:14:54;;;;;;;;;;;;;;;34.10;31.16;99638.25;6266379;23;19907;-86
2023/08/06 07:17:46;;;;;;;;;;;;;;;35.43;28.44;99632.41;6271786;23;19907;-84
2023/08/06 07:20:38;;;;;;;;;;;;;;;36.16;26.46;99636.03;6269551;23;19911;-85
2023/08/06 07:23:30;;;;;;;;;;;;;;;36.82;25.63;99644.34;6266320;23;20246;-83
2023/08/06 07:26:17;;;;;;;;;;;;;;;38.12;24.01;99640.09;6264200;23;19915;-84
2023/08/06 07:29:09;;;;;;;;;;;;;;;38.19;23.94;99635.91;6263880;23;20246;-86
2023/08/06 07:31:59;;;;;;;;;;;;;;;38.21;23.55;99639.72;6254092;23;19915;-84
2023/08/06 07:34:53;;;;;;;;;;;;;;;38.61;23.10;99638.00;6265256;23;19907;-88
2023/08/06 07:37:45;;;;;;;;;;;;;;;39.47;22.14;99640.72;6261983;23;19908;-87
2023/08/06 07:40:37;;;;;;;;;;;;;;;39.87;21.31;99638.81;6261942;23;19907;-87
2023/08/06 07:43:29;;;;;;;;;;;;;;;40.11;20.62;99643.56;6263395;23;19907;-88
2023/08/06 07:46:21;;;;;;;;;;;;;;;40.35;20.70;99642.59;6264768;23;20242;-87
2023/08/06 07:49:15;;;;;;;;;;;;;;;40.47;20.07;99639.00;6263547;23;19907;-87
2023/08/06 07:52:07;;;;;;;;;;;;;;;41.31;19.43;99640.81;6263766;23;19907;-90
2023/08/06 07:54:59;;;;;;;;;;;;;;;40.93;19.68;99646.09;6262283;23;20318;-87
2023/08/06 07:57:51;;;;;;;;;;;;;;;40.34;19.89;99644.69;6261016;23;19907;-86
2023/08/06 08:00:42;;;;;;;;;;;;;;;40.94;19.68;99641.16;6261391;23;19912;-87
2023/08/06 08:03:32;;;;;;;;;;;;;;;41.20;19.38;99637.44;6261394;23;19907;-86
2023/08/06 08:06:21;;;;;;;;;;;;;;;41.58;19.44;99644.34;6270149;23;19911;-87
2023/08/06 08:09:13;;;;;;;;;;;;;;;42.02;18.69;99633.88;6269977;23;19908;-88
2023/08/06 08:12:03;;;;;;;;;;;;;;;42.86;18.44;99638.03;6268842;23;19908;-87
2023/08/06 08:14:55;;;;;;;;;;;;;;;43.87;17.38;99627.03;6269334;23;19907;-87
2023/08/06 08:17:47;;;;;;;;;;;;;;;43.66;17.94;99632.16;6263289;23;19911;-87
2023/08/06 08:20:39;;;;;;;;;;;;;;;44.71;17.05;99634.16;6263156;23;19907;-87
2023/08/06 08:23:31;;;;;;;;;;;;;;;44.19;17.23;99624.31;6262020;23;19907;-86
2023/08/06 08:26:23;;;;;;;;;;;;;;;44.72;16.62;99629.94;6261465;23;19911;-86
2023/08/06 08:29:15;;;;;;;;;;;;;;;43.63;17.92;99619.00;6259960;23;19908;-86
2023/08/06 08:32:07;;;;;;;;;;;;;;;44.39;17.22;99628.31;6260185;23;19907;-85
2023/08/06 08:34:59;;;;;;;;;;;;;;;43.04;17.95;99619.78;6259648;23;19907;-85
2023/08/06 08:37:51;;;;;;;;;;;;;;;43.08;17.95;99628.00;6258368;23;19907;-84
2023/08/06 08:40:42;;;;;;;;;;;;;;;44.05;16.55;99636.56;6257709;23;19908;-85
2023/08/06 08:43:35;;;;;;;;;;;;;;;45.18;15.63;99638.34;6257232;23;19907;-85
2023/08/06 08:46:28;;;;;;;;;;;;;;;44.65;16.29;99639.31;6257092;23;19912;-86
2023/08/06 08:49:20;;;;;;;;;;;;;;;43.53;17.08;99640.94;6257339;23;19911;-87
2023/08/06 08:52:12;;;;;;;;;;;;;;;44.11;16.53;99640.75;6257352;23;19908;-86
2023/08/06 08:55:03;;;;;;;;;;;;;;;44.45;16.12;99642.44;6257883;23;19907;-86
2023/08/06 08:57:55;;;;;;;;;;;;;;;44.53;15.96;99635.34;6256964;23;19907;-81
2023/08/06 09:00:47;;;;;;;;;;;;;;;45.12;15.46;99646.41;6256741;23;19908;-81
2023/08/06 09:03:36;;;;;;;;;;;;;;;46.51;14.54;99654.91;6256708;23;19908;-81
2023/08/06 09:06:26;;;;;;;;;;;;;;;45.85;14.86;99649.97;6256564;23;20242;-83
2023/08/06 09:09:22;;;;;;;;;;;;;;;46.45;14.23;99653.63;6256937;23;20330;-82
2023/08/06 09:12:21;;;;;;;;;;;;;;;46.98;14.10;99662.44;6256731;23;19908;-88
2023/08/06 09:15:11;;;;;;;;;;;;;;;47.92;12.77;99662.78;6258000;23;19908;-87
2023/08/06 09:18:11;;;;;;;;;;;;;;;47.45;13.66;99654.69;6257416;23;19908;-87
2023/08/06 09:21:03;;;;;;;;;;;;;;;47.63;13.56;99664.81;6257503;23;19908;-87
2023/08/06 09:23:56;;;;;;;;;;;;;;;46.05;14.94;99666.09;6257179;23;19937;-87
2023/08/06 09:26:48;;;;;;;;;;;;;;;46.10;14.72;99664.31;6256099;23;19915;-86
2023/08/06 09:29:33;;;;;;;;;;;;;;;47.51;13.64;99663.81;6257303;23;19908;-87
2023/08/06 09:32:26;;;;;;;;;;;;;;;47.85;13.28;99674.47;6257289;23;19907;-86
2023/08/06 09:35:21;;;;;;;;;;;;;;;48.24;13.06;99663.78;6258000;23;20238;-87
2023/08/06 09:38:16;;;;;;;;;;;;;;;47.04;13.91;99657.16;6256554;23;20326;-86
2023/08/06 09:41:08;;;;;;;;;;;;;;;48.02;13.54;99657.81;6256521;23;19907;-87
2023/08/06 09:44:00;;;;;;;;;;;;;;;48.76;12.64;99656.28;6256257;23;19907;-84
2023/08/06 09:46:51;;;;;;;;;;;;;;;48.37;13.43;99660.47;6255969;23;19911;-87
2023/08/06 09:49:45;;;;;;;;;;;;;;;48.92;12.75;99664.59;6257775;23;19907;-88
2023/08/06 09:52:35;;;;;;;;;;;;;;;48.50;13.12;99662.94;6259731;23;19907;-88
2023/08/06 09:55:26;;;;;;;;;;;;;;;49.17;12.41;99670.81;6258045;23;19907;-88
2023/08/06 09:58:18;;;;;;;;;;;;;;;49.20;12.47;99664.56;6256617;23;19907;-90
2023/08/06 10:01:08;;;;;;;;;;;;;;;48.63;12.55;99658.81;6256504;23;19907;-91
2023/08/06 10:04:00;;;;;;;;;;;;;;;48.30;13.00;99665.03;6258997;23;19907;-88
2023/08/06 10:06:52;;;;;;;;;;;;;;;48.20;13.10;99660.59;6258606;23;19915;-87
2023/08/06 10:09:44;;;;;;;;;;;;;;;48.52;13.21;99654.41;6257428;23;19907;-90
2023/08/06 10:12:39;;;;;;;;;;;;;;;48.51;13.13;99650.03;6259179;23;19907;-88
2023/08/06 10:15:30;;;;;;;;;;;;;;;49.07;12.63;99656.38;6259347;23;19907;-89
2023/08/06 10:18:22;;;;;;;;;;;;;;;49.54;12.31;99656.84;6256814;23;19908;-91
2023/08/06 10:21:14;;;;;;;;;;;;;;;49.73;12.20;99662.56;6256956;23;19908;-91
2023/08/06 10:24:08;;;;;;;;;;;;;;;48.36;13.04;99653.94;6256865;23;19908;-88
2023/08/06 10:27:00;;;;;;;;;;;;;;;49.23;12.82;99651.00;6258539;23;19912;-91
2023/08/06 10:29:53;;;;;;;;;;;;;;;47.90;13.38;99648.19;6261466;23;19912;-84
2023/08/06 10:32:51;;;;;;;;;;;;;;;48.17;13.34;99638.72;6257596;23;19907;-90
2023/08/06 10:35:50;;;;;;;;;;;;;;;48.44;12.99;99642.25;6258131;23;20322;-86
2023/08/06 10:38:54;;;;;;;;;;;;;;;48.11;13.11;99638.28;6256423;23;19907;-85
2023/08/06 10:41:49;;;;;;;;;;;;;;;47.96;13.34;99642.13;6256765;23;19907;-86
2023/08/06 10:44:59;;;;;;;;;;;;;;;49.56;12.55;99640.44;6256400;23;19911;-86
2023/08/06 10:47:51;;;;;;;;;;;;;;;47.15;14.11;99642.22;6255746;23;20238;-84
2023/08/06 10:50:44;;;;;;;;;;;;;;;48.18;13.43;99643.13;6255476;23;20406;-85
2023/08/06 10:53:33;;;;;;;;;;;;;;;48.00;13.49;99640.38;6255856;23;20315;-86
2023/08/06 10:56:26;;;;;;;;;;;;;;;48.12;13.24;99639.78;6256350;23;20388;-85
2023/08/06 10:59:18;;;;;;;;;;;;;;;48.51;13.17;99640.59;6256272;23;19907;-85
2023/08/06 11:02:08;;;;;;;;;;;;;;;48.33;12.72;99634.19;6255980;23;19937;-84
2023/08/06 11:04:59;;;;;;;;;;;;;;;47.36;13.82;99638.88;6255568;23;19920;-86
2023/08/06 11:07:49;;;;;;;;;;;;;;;47.92;13.52;99636.81;6255414;23;20327;-85
2023/08/06 11:10:41;;;;;;;;;;;;;;;46.75;14.13;99628.16;6256169;23;19907;-85
2023/08/06 11:13:33;;;;;;;;;;;;;;;46.46;14.35;99624.28;6256049;23;19907;-86
2023/08/06 11:16:29;;;;;;;;;;;;;;;45.03;15.83;99618.34;6255741;23;19908;-84
2023/08/06 11:19:22;;;;;;;;;;;;;;;44.94;15.70;99616.84;6255440;23;19907;-84
2023/08/06 11:22:14;;;;;;;;;;;;;;;45.45;14.97;99621.34;6256151;23;20322;-84
2023/08/06 11:25:09;;;;;;;;;;;;;;;44.90;14.98;99609.97;6254849;23;19911;-85
2023/08/06 11:28:03;;;;;;;;;;;;;;;46.68;13.57;99597.38;6255359;23;20246;-87
2023/08/06 11:30:55;;;;;;;;;;;;;;;47.08;13.24;99599.91;6256483;23;19907;-81
2023/08/06 11:33:44;;;;;;;;;;;;;;;44.98;14.93;99599.19;6256826;23;19907;-84
2023/08/06 11:36:34;;;;;;;;;;;;;;;45.40;14.28;99594.34;6256003;23;19908;-85
2023/08/06 11:39:26;;;;;;;;;;;;;;;44.02;15.47;99586.88;6255364;23;19908;-87
2023/08/06 11:42:19;;;;;;;;;;;;;;;44.69;14.70;99581.56;6256192;23;19908;-87
2023/08/06 11:45:08;;;;;;;;;;;;;;;44.69;15.17;99585.19;6255995;23;19915;-86
2023/08/06 11:48:01;;;;;;;;;;;;;;;40.39;18.60;99571.78;6255975;23;19907;-84
2023/08/06 11:50:51;;;;;;;;;;;;;;;40.65;18.11;99574.63;6256847;23;19908;-85
2023/08/06 11:53:43;;;;;;;;;;;;;;;40.34;18.79;99578.34;6256365;23;19907;-86
2023/08/06 11:56:35;;;;;;;;;;;;;;;39.65;19.40;99568.75;6256292;23;19908;-88
2023/08/06 11:59:27;;;;;;;;;;;;;;;36.72;23.31;99560.16;6256616;23;19908;-86
2023/08/06 12:02:39;;;;;;;;;;;;;;;34.64;26.06;99551.53;6257664;23;19911;-90
2023/08/06 12:05:38;;;;;;;;;;;;;;;33.23;27.80;99553.97;6257248;23;19911;-82
2023/08/06 12:08:33;;;;;;;;;;;;;;;31.93;30.01;99554.94;6257933;23;19930;-83
2023/08/06 12:11:22;;;;;;;;;;;;;;;31.69;28.98;99560.75;6258913;23;19908;-88
2023/08/06 12:14:12;;;;;;;;;;;;;;;31.38;30.65;99566.88;6258439;23;19907;-90
2023/08/06 12:17:04;;;;;;;;;;;;;;;30.97;31.28;99576.31;6259360;23;19907;-90
2023/08/06 12:19:56;;;;;;;;;;;;;;;30.51;31.85;99573.13;6257620;23;20274;-87
2023/08/06 12:22:47;;;;;;;;;;;;;;;30.90;31.71;99576.69;6257186;23;19907;-86
2023/08/06 12:25:35;;;;;;;;;;;;;;;30.43;32.12;99566.28;6256409;23;19915;-87
2023/08/06 12:28:26;;;;;;;;;;;;;;;30.31;34.62;99556.88;6256916;23;19908;-88
2023/08/06 12:31:16;;;;;;;;;;;;;;;30.34;34.94;99569.94;6257723;23;19908;-91
2023/08/06 12:34:05;;;;;;;;;;;;;;;30.66;33.95;99571.13;6257895;23;20315;-92
2023/08/06 12:36:57;;;;;;;;;;;;;;;30.41;34.75;99568.81;6258260;23;19907;-91
2023/08/06 12:39:41;;;;;;;;;;;;;;;30.64;34.59;99564.44;6256022;23;19907;-85
2023/08/06 12:42:33;;;;;;;;;;;;;;;30.37;33.68;99566.19;6257645;23;19907;-85
2023/08/06 12:45:25;;;;;;;;;;;;;;;30.11;34.07;99579.13;6257765;23;19911;-88
2023/08/06 12:48:14;;;;;;;;;;;;;;;30.42;33.56;99573.16;6257191;23;19908;-83
2023/08/06 12:51:06;;;;;;;;;;;;;;;30.24;33.95;99571.25;6255906;23;19907;-86
2023/08/06 12:53:58;;;;;;;;;;;;;;;30.50;30.49;99561.13;6256025;23;19907;-86
2023/08/06 12:56:46;;;;;;;;;;;;;;;30.52;33.00;99575.47;6256373;23;19908;-86
2023/08/06 12:59:33;;;;;;;;;;;;;;;30.69;33.03;99566.56;6255295;23;19907;-87
2023/08/06 13:02:25;;;;;;;;;;;;;;;30.72;31.97;99569.22;6255558;23;19907;-86
2023/08/06 13:05:17;;;;;;;;;;;;;;;30.96;32.13;99574.75;6255529;23;20351;-89
2023/08/06 13:08:09;;;;;;;;;;;;;;;31.03;32.07;99574.41;6256551;23;19941;-88
2023/08/06 13:11:01;;;;;;;;;;;;;;;30.40;32.77;99582.06;6254653;23;19907;-85
2023/08/06 13:13:51;;;;;;;;;;;;;;;30.42;31.40;99561.94;6255133;23;19986;-85
2023/08/06 13:16:44;;;;;;;;;;;;;;;30.16;33.46;99553.22;6255197;23;19911;-85
2023/08/06 13:19:36;;;;;;;;;;;;;;;30.38;26.20;99556.50;6201702;23;1122443;-84
2023/08/06 13:22:28;;;;;;;;;;;;;;;30.52;29.54;99553.00;6256951;23;19911;-86
2023/08/06 13:25:20;;;;;;;;;;;;;;;30.64;27.50;99553.19;6256401;23;19915;-84
2023/08/06 13:28:07;;;;;;;;;;;;;;;30.18;30.83;99559.91;6256131;23;19912;-85
2023/08/06 13:30:58;;;;;;;;;;;;;;;28.79;34.62;99539.69;6256165;23;19900;-84
2023/08/06 13:33:48;;;;;;;;;;;;;;;29.62;31.06;99557.06;6262359;23;19908;-85
2023/08/06 13:36:40;;;;;;;;;;;;;;;29.61;31.31;99561.13;6261156;23;19919;-85
2023/08/06 13:39:32;;;;;;;;;;;;;;;30.06;30.55;99568.56;6264182;23;19907;-84
2023/08/06 13:42:21;;;;;;;;;;;;;;;30.10;29.48;99560.75;6262975;23;19908;-84
2023/08/06 13:45:11;;;;;;;;;;;;;;;30.23;30.85;99555.66;6262762;23;19911;-84
2023/08/06 13:48:03;;;;;;;;;;;;;;;30.11;30.70;99557.47;6263139;23;19908;-84
2023/08/06 13:50:55;;;;;;;;;;;;;;;29.88;31.66;99554.59;6261328;23;20238;-84
2023/08/06 13:53:45;;;;;;;;;;;;;;;29.73;30.89;99554.53;6261120;23;19908;-85
2023/08/06 13:56:37;;;;;;;;;;;;;;;28.97;30.07;99563.28;6253823;23;19912;-85
2023/08/06 13:59:24;;;;;;;;;;;;;;;28.57;31.30;99571.81;6254913;23;20257;-87
2023/08/06 14:02:16;;;;;;;;;;;;;;;28.47;31.00;99566.22;6255802;23;19908;-83
2023/08/06 14:05:08;;;;;;;;;;;;;;;28.37;31.73;99558.28;6255808;23;19915;-84
2023/08/06 14:08:00;;;;;;;;;;;;;;;28.17;32.32;99555.94;6259575;23;19911;-84
2023/08/06 14:10:47;;;;;;;;;;;;;;;27.83;33.67;99547.75;6258113;23;19907;-83
2023/08/06 14:13:38;;;;;;;;;;;;;;;27.98;35.36;99548.72;6257984;23;19907;-84
2023/08/06 14:16:28;;;;;;;;;;;;;;;28.35;33.28;99555.16;6257152;23;19907;-84
2023/08/06 14:19:15;;;;;;;;;;;;;;;28.22;32.82;99554.53;6234370;23;19915;-85
2023/08/06 14:22:05;;;;;;;;;;;;;;;28.16;31.75;99553.59;6256781;23;19907;-85
2023/08/06 14:24:57;;;;;;;;;;;;;;;28.15;32.57;99552.03;6256566;23;19907;-86
2023/08/06 14:27:49;;;;;;;;;;;;;;;28.01;31.40;99553.38;6256535;23;19911;-84
2023/08/06 14:30:41;;;;;;;;;;;;;;;27.93;34.03;99552.13;6256933;23;19907;-84
2023/08/06 14:33:33;;;;;;;;;;;;;;;28.15;31.90;99560.44;6257090;23;19908;-88
2023/08/06 14:36:26;;;;;;;;;;;;;;;28.13;33.76;99552.53;6256041;23;19907;-88
2023/08/06 14:39:16;;;;;;;;;;;;;;;28.16;31.73;99550.81;6256403;23;19908;-90
2023/08/06 14:42:08;;;;;;;;;;;;;;;28.31;32.18;99558.13;6257088;23;19908;-82
2023/08/06 14:45:00;;;;;;;;;;;;;;;28.42;31.91;99555.66;6255706;23;19907;-83
2023/08/06 14:47:49;;;;;;;;;;;;;;;28.52;31.15;99558.47;6256189;23;19915;-84
2023/08/06 14:50:41;;;;;;;;;;;;;;;28.42;30.86;99547.28;6255366;23;19907;-84
2023/08/06 14:53:31;;;;;;;;;;;;;;;28.37;31.19;99549.91;6256388;23;20238;-83
2023/08/06 14:56:23;;;;;;;;;;;;;;;28.40;31.96;99549.75;6256748;23;19908;-84